Time;durP1;ratioP1;P1;durP2;ratioP2;P2;SDS_P1;SDS_P2;PMS_P1;PMS_P2;Temp;Humidity;BMP_temperature;BMP_pressure;BME280_temperature;BME280_humidity;BME280_pressure;Samples;Min_cycle;Max_cycle;Signal;HPM_P1;HPM_P2
2023/09/20 00:02:01;;;;;;;10.70;6.32;;;;;;;16.76;64.18;99488.38;5072233;28;20079;-39
2023/09/20 00:04:29;;;;;;;11.13;6.35;;;;;;;16.75;64.15;99487.53;5073348;28;20044;-38
2023/09/20 00:06:56;;;;;;;8.95;6.45;;;;;;;16.73;63.80;99486.81;5073439;28;20106;-40
2023/09/20 00:09:23;;;;;;;8.88;6.75;;;;;;;16.52;64.32;99461.88;5073934;28;20064;-39
2023/09/20 00:11:49;;;;;;;8.32;5.75;;;;;;;16.68;64.04;99488.03;5073799;28;20049;-39
2023/09/20 00:14:15;;;;;;;13.88;6.13;;;;;;;16.66;64.24;99488.13;5070570;28;20044;-40
2023/09/20 00:16:42;;;;;;;10.57;6.72;;;;;;;16.61;64.52;99478.84;5081303;28;20115;-38
2023/09/20 00:19:08;;;;;;;12.70;6.60;;;;;;;16.59;64.47;99486.00;5073672;28;20130;-39
2023/09/20 00:21:34;;;;;;;9.32;6.70;;;;;;;16.56;64.25;99484.34;5076714;28;20071;-39
2023/09/20 00:24:04;;;;;;;8.02;6.28;;;;;;;16.56;64.64;99481.72;5076847;28;20416;-39
2023/09/20 00:26:33;;;;;;;12.98;6.68;;;;;;;16.54;64.64;99481.81;5078622;28;20036;-39
2023/09/20 00:29:04;;;;;;;8.52;6.28;;;;;;;16.54;64.58;99481.81;5079048;28;20427;-39
2023/09/20 00:31:31;;;;;;;10.15;6.53;;;;;;;16.53;64.70;99487.19;5070664;28;20058;-39
2023/09/20 00:33:57;;;;;;;10.38;6.15;;;;;;;16.50;64.72;99479.47;5058807;28;20036;-38
2023/09/20 00:36:23;;;;;;;10.30;6.00;;;;;;;16.51;64.60;99494.28;5077600;28;20036;-41
2023/09/20 00:38:49;;;;;;;11.13;6.57;;;;;;;16.53;64.14;99487.19;5080669;28;20044;-39
2023/09/20 00:41:15;;;;;;;12.73;6.93;;;;;;;16.53;64.37;99484.56;5063891;28;20039;-39
2023/09/20 00:43:41;;;;;;;8.75;5.78;;;;;;;16.49;64.22;99483.03;5077214;28;20041;-39
2023/09/20 00:46:08;;;;;;;12.20;6.00;;;;;;;16.50;64.18;99498.69;5064953;28;20064;-38
2023/09/20 00:48:34;;;;;;;10.55;5.93;;;;;;;16.36;64.28;99464.59;5073686;28;20058;-39
2023/09/20 00:51:00;;;;;;;11.07;6.53;;;;;;;16.26;64.38;99460.84;5063586;28;20059;-38
2023/09/20 00:53:28;;;;;;;14.27;6.00;;;;;;;16.41;64.68;99491.41;5080793;28;20036;-39
2023/09/20 00:55:55;;;;;;;9.77;6.40;;;;;;;16.40;64.83;99483.59;5063564;28;20055;-39
2023/09/20 00:58:23;;;;;;;11.80;6.32;;;;;;;16.24;64.45;99470.59;5068392;28;20079;-40
2023/09/20 01:00:52;;;;;;;9.45;5.22;;;;;;;16.34;64.88;99486.59;5077339;28;20537;-38
2023/09/20 01:03:18;;;;;;;10.98;6.43;;;;;;;16.32;65.11;99494.59;5077854;28;20062;-39
2023/09/20 01:05:46;;;;;;;9.65;6.22;;;;;;;16.13;64.90;99462.53;5063064;28;21708;-39
2023/09/20 01:08:14;;;;;;;11.35;6.45;;;;;;;16.28;64.93;99476.47;5093650;28;20070;-43
2023/09/20 01:10:40;;;;;;;10.57;6.28;;;;;;;16.25;64.98;99490.63;5076182;28;20045;-39
2023/09/20 01:13:09;;;;;;;8.05;5.60;;;;;;;16.04;65.31;99461.31;5062049;28;20073;-39
2023/09/20 01:15:37;;;;;;;8.82;6.38;;;;;;;16.19;65.59;99492.78;5066814;28;20043;-38
2023/09/20 01:18:04;;;;;;;13.40;6.30;;;;;;;16.02;65.37;99457.06;5076397;28;20542;-45
2023/09/20 01:20:34;;;;;;;8.57;6.38;;;;;;;16.22;65.31;99487.38;5058654;28;20039;-39
2023/09/20 01:23:00;;;;;;;9.90;6.38;;;;;;;16.17;65.41;99490.28;5076896;28;20110;-38
2023/09/20 01:25:29;;;;;;;7.30;6.03;;;;;;;16.14;65.30;99490.44;5071681;28;20127;-38
2023/09/20 01:27:58;;;;;;;10.77;5.85;;;;;;;16.09;65.47;99484.63;5072049;28;20028;-39
2023/09/20 01:30:28;;;;;;;8.90;6.07;;;;;;;16.08;65.67;99493.44;5073283;28;20531;-39
2023/09/20 01:32:55;;;;;;;8.63;6.30;;;;;;;16.04;65.88;99487.53;5076962;28;20044;-37
2023/09/20 01:35:22;;;;;;;12.27;6.50;;;;;;;16.01;65.83;99487.72;5054171;28;20049;-39
2023/09/20 01:37:51;;;;;;;8.88;6.10;;;;;;;15.97;66.11;99488.81;5078302;28;20040;-40
2023/09/20 01:40:19;;;;;;;10.80;6.68;;;;;;;15.95;66.01;99490.72;5075058;28;20517;-39
2023/09/20 01:42:48;;;;;;;8.45;6.05;;;;;;;15.95;66.24;99487.25;5062832;28;20130;-38
2023/09/20 01:45:18;;;;;;;9.05;6.28;;;;;;;15.96;66.00;99491.56;5078246;28;20043;-39
2023/09/20 01:47:50;;;;;;;8.55;6.10;;;;;;;15.93;66.09;99487.31;5078411;28;20036;-39
2023/09/20 01:50:21;;;;;;;9.23;6.20;;;;;;;15.94;66.10;99483.78;5080303;28;20050;-38
2023/09/20 01:52:48;;;;;;;12.20;6.22;;;;;;;15.83;66.21;99469.59;5084285;28;20044;-40
2023/09/20 01:55:17;;;;;;;9.88;6.20;;;;;;;15.92;65.96;99485.63;5082215;28;20114;-38
2023/09/20 01:57:53;;;;;;;9.77;5.80;;;;;;;15.90;66.38;99476.19;5077035;28;20044;-39
2023/09/20 02:00:22;;;;;;;11.52;6.15;;;;;;;15.88;66.23;99478.03;5075974;28;20041;-38
2023/09/20 02:02:51;;;;;;;12.63;6.57;;;;;;;15.86;66.11;99475.50;5078004;28;20106;-38
2023/09/20 02:05:18;;;;;;;11.73;6.53;;;;;;;15.85;66.02;99471.22;5065540;28;20037;-38
2023/09/20 02:07:48;;;;;;;10.00;6.13;;;;;;;15.88;65.90;99484.13;5083875;28;20109;-39
2023/09/20 02:10:16;;;;;;;11.90;6.30;;;;;;;15.89;65.81;99479.72;5079910;28;20139;-38
2023/09/20 02:12:52;;;;;;;9.07;5.78;;;;;;;15.90;65.91;99482.28;5060532;28;20039;-38
2023/09/20 02:15:18;;;;;;;11.10;6.13;;;;;;;15.88;65.92;99475.41;5055988;28;20035;-39
2023/09/20 02:17:46;;;;;;;12.20;6.30;;;;;;;15.82;65.92;99471.38;5075674;28;20036;-38
2023/09/20 02:20:13;;;;;;;10.45;6.47;;;;;;;15.79;66.04;99484.69;5078194;28;20507;-38
2023/09/20 02:22:39;;;;;;;7.47;5.60;;;;;;;15.76;66.45;99479.59;5075074;28;20106;-38
2023/09/20 02:25:26;;;;;;;12.07;6.55;;;;;;;15.80;66.21;99475.03;5071383;28;20049;-39
2023/09/20 02:27:54;;;;;;;9.52;5.88;;;;;;;15.72;66.16;99462.38;5060330;28;20051;-39
2023/09/20 02:30:24;;;;;;;9.80;6.05;;;;;;;15.75;66.17;99467.44;5086213;28;20045;-37
2023/09/20 02:32:57;;;;;;;9.77;6.40;;;;;;;15.78;66.14;99479.50;5075281;28;20046;-39
2023/09/20 02:35:25;;;;;;;8.70;6.07;;;;;;;15.76;65.98;99473.50;5057135;28;20068;-38
2023/09/20 02:37:53;;;;;;;10.02;6.97;;;;;;;15.60;66.21;99458.69;5076342;28;20063;-38
2023/09/20 02:40:23;;;;;;;9.93;6.03;;;;;;;15.70;66.12;99472.13;5054169;28;20040;-38
2023/09/20 02:42:54;;;;;;;8.40;5.90;;;;;;;15.67;66.66;99481.00;5077860;28;20040;-42
2023/09/20 02:45:22;;;;;;;11.25;7.07;;;;;;;15.66;66.60;99468.81;5060083;28;20046;-39
2023/09/20 02:47:49;;;;;;;12.43;6.63;;;;;;;15.65;66.79;99477.59;5054060;28;20511;-37
2023/09/20 02:50:18;;;;;;;9.50;5.88;;;;;;;15.64;66.35;99483.81;5055581;28;20119;-39
2023/09/20 02:52:47;;;;;;;8.40;6.03;;;;;;;15.61;66.51;99480.50;5059854;28;20062;-39
2023/09/20 02:55:15;;;;;;;9.18;6.43;;;;;;;15.59;66.88;99479.75;5065640;28;20071;-39
2023/09/20 02:57:42;;;;;;;8.67;6.00;;;;;;;15.56;66.59;99470.28;5074529;28;20127;-39
2023/09/20 03:00:16;;;;;;;12.75;6.60;;;;;;;15.24;66.90;99426.72;5066797;28;20036;-38
2023/09/20 03:02:47;;;;;;;10.38;6.30;;;;;;;15.51;66.60;99474.06;5055872;28;20040;-40
2023/09/20 03:05:21;;;;;;;8.00;5.47;;;;;;;15.46;67.03;99476.13;5072731;28;20068;-38
2023/09/20 03:07:49;;;;;;;10.02;5.97;;;;;;;15.46;67.10;99468.25;5032943;28;20036;-40
2023/09/20 03:10:19;;;;;;;9.38;6.53;;;;;;;15.44;67.16;99476.19;5061531;28;20036;-38
2023/09/20 03:12:47;;;;;;;11.40;6.30;;;;;;;15.42;66.95;99479.84;5061569;28;20495;-39
2023/09/20 03:15:17;;;;;;;11.18;5.55;;;;;;;15.39;67.22;99477.38;5057307;28;20405;-39
2023/09/20 03:17:45;;;;;;;8.93;6.28;;;;;;;15.38;67.47;99479.19;5032658;28;20080;-38
2023/09/20 03:20:13;;;;;;;9.13;6.05;;;;;;;15.38;67.02;99473.94;5049552;28;20241;-39
2023/09/20 03:22:41;;;;;;;8.63;5.78;;;;;;;15.37;67.25;99471.41;5073439;28;20104;-38
2023/09/20 03:25:11;;;;;;;9.70;5.95;;;;;;;15.36;67.38;99475.81;5066832;28;20044;-39
2023/09/20 03:27:40;;;;;;;9.15;6.40;;;;;;;15.34;67.42;99467.19;5067246;28;20078;-38
2023/09/20 03:30:10;;;;;;;12.57;6.25;;;;;;;15.31;67.30;99467.34;5063534;28;20044;-38
2023/09/20 03:32:40;;;;;;;13.32;7.10;;;;;;;15.26;67.40;99470.25;5061362;28;20502;-38
2023/09/20 03:35:07;;;;;;;9.93;5.82;;;;;;;15.27;67.41;99468.47;5077414;28;20071;-38
2023/09/20 03:37:36;;;;;;;11.98;6.43;;;;;;;15.26;67.39;99470.25;5075373;28;20043;-39
2023/09/20 03:40:05;;;;;;;;;;;;;;;15.28;67.66;99470.16;5074313;28;20044;-38
2023/09/20 03:42:31;;;;;;;8.65;6.10;;;;;;;15.10;67.57;99445.84;5076146;28;19916;-38
2023/09/20 03:44:57;;;;;;;10.38;6.40;;;;;;;15.24;67.51;99479.09;5078107;28;20046;-39
2023/09/20 03:47:23;;;;;;;13.68;6.00;;;;;;;15.18;67.69;99459.34;5076655;28;20089;-38
2023/09/20 03:49:52;;;;;;;8.75;7.03;;;;;;;15.25;67.71;99473.78;5061601;28;20044;-37
2023/09/20 03:52:18;;;;;;;11.68;6.45;;;;;;;15.25;67.57;99470.31;5054561;28;20044;-37
2023/09/20 03:54:50;;;;;;;9.00;6.03;;;;;;;15.27;67.65;99471.94;5077630;28;20442;-38
2023/09/20 03:57:16;;;;;;;9.82;6.78;;;;;;;15.30;67.28;99475.31;5077824;28;20056;-40
2023/09/20 03:59:42;;;;;;;10.18;5.90;;;;;;;15.33;67.05;99478.59;5072652;28;20032;-38
2023/09/20 04:02:13;;;;;;;10.82;6.93;;;;;;;15.37;67.26;99476.66;5081477;28;20134;-38
2023/09/20 04:04:40;;;;;;;8.77;6.22;;;;;;;15.42;66.91;99474.59;5064212;28;20040;-37
2023/09/20 04:07:07;;;;;;;12.65;6.35;;;;;;;15.27;66.81;99444.91;5059414;28;20594;-39
2023/09/20 04:09:35;;;;;;;10.57;6.47;;;;;;;15.40;66.87;99466.81;5058018;28;20033;-37
2023/09/20 04:12:05;;;;;;;11.27;5.80;;;;;;;15.50;66.43;99482.84;5072383;28;20106;-38
2023/09/20 04:14:33;;;;;;;11.65;6.70;;;;;;;15.38;65.90;99462.63;5070709;28;20118;-38
2023/09/20 04:16:59;;;;;;;11.35;7.10;;;;;;;15.56;66.16;99486.00;5075450;28;20445;-39
2023/09/20 04:19:25;;;;;;;9.25;6.13;;;;;;;15.58;66.18;99480.69;5084470;28;20058;-38
2023/09/20 04:21:51;;;;;;;12.57;6.40;;;;;;;15.39;65.84;99452.03;5078740;28;20423;-37
2023/09/20 04:24:17;;;;;;;10.80;6.07;;;;;;;15.64;65.72;99480.34;5069150;28;20128;-38
2023/09/20 04:26:43;;;;;;;8.70;6.72;;;;;;;15.52;65.75;99457.47;5061036;28;20125;-38
2023/09/20 04:29:10;;;;;;;14.18;6.78;;;;;;;15.71;65.55;99486.03;5083406;28;20064;-38
2023/09/20 04:31:36;;;;;;;12.65;5.95;;;;;;;15.75;65.34;99482.34;5077540;28;20048;-37
2023/09/20 04:34:02;;;;;;;8.23;6.28;;;;;;;15.79;64.72;99489.91;5068948;28;20047;-38
2023/09/20 04:36:28;;;;;;;9.02;5.53;;;;;;;15.85;64.69;99488.72;5079145;28;20040;-36
2023/09/20 04:38:55;;;;;;;9.70;6.18;;;;;;;15.91;64.19;99488.38;5081695;28;20053;-37
2023/09/20 04:41:21;;;;;;;14.82;6.70;;;;;;;15.95;64.06;99487.25;5060498;28;20629;-38
2023/09/20 04:43:48;;;;;;;8.55;5.75;;;;;;;15.99;64.15;99488.72;5063899;28;20044;-37
2023/09/20 04:46:15;;;;;;;8.80;5.93;;;;;;;15.91;63.75;99462.16;5062251;28;20642;-38
2023/09/20 04:48:41;;;;;;;10.10;6.63;;;;;;;16.08;63.66;99485.56;5063127;28;20063;-39
2023/09/20 04:51:09;;;;;;;8.50;6.10;;;;;;;16.14;63.45;99486.97;5081656;28;20539;-38
2023/09/20 04:53:35;;;;;;;7.80;6.10;;;;;;;16.20;63.17;99490.06;5078518;28;20048;-38
2023/09/20 04:56:02;;;;;;;12.50;5.90;;;;;;;16.13;62.55;99467.75;5079935;28;20079;-37
2023/09/20 04:58:28;;;;;;;8.73;5.82;;;;;;;16.32;62.44;99483.25;5078634;28;20043;-37
2023/09/20 05:00:54;;;;;;;10.82;5.47;;;;;;;16.37;61.92;99484.66;5076890;28;20124;-38
2023/09/20 05:03:20;;;;;;;10.80;5.60;;;;;;;16.44;61.67;99491.19;5076234;28;20511;-37
2023/09/20 05:05:50;;;;;;;11.05;6.25;;;;;;;16.35;61.31;99462.91;5080011;28;20060;-39
2023/09/20 05:08:18;;;;;;;10.40;5.97;;;;;;;16.30;61.67;99449.22;5047190;28;20597;-38
2023/09/20 05:10:44;;;;;;;11.93;6.15;;;;;;;16.55;61.28;99480.03;5079651;28;20411;-39
2023/09/20 05:13:11;;;;;;;11.23;6.63;;;;;;;16.70;61.16;99486.97;5079749;28;20048;-39
2023/09/20 05:15:38;;;;;;;13.07;5.43;;;;;;;16.75;61.04;99484.91;5070529;28;20586;-38
2023/09/20 05:18:06;;;;;;;13.65;6.40;;;;;;;16.81;60.53;99499.44;5047848;28;20045;-38
2023/09/20 05:20:32;;;;;;;9.52;5.63;;;;;;;16.86;60.39;99485.09;5068345;28;20126;-37
2023/09/20 05:22:59;;;;;;;10.57;6.32;;;;;;;16.94;60.19;99489.88;5070216;28;20081;-38
2023/09/20 05:25:25;;;;;;;8.68;4.95;;;;;;;17.02;59.94;99492.84;5069313;28;20109;-37
2023/09/20 05:27:54;;;;;;;10.88;5.80;;;;;;;16.94;59.26;99469.72;5069242;28;20039;-38
2023/09/20 05:30:21;;;;;;;8.23;5.70;;;;;;;17.20;59.02;99496.09;5066721;28;20040;-37
2023/09/20 05:32:51;;;;;;;9.50;4.97;;;;;;;17.29;58.81;99487.59;5068752;28;20099;-38
2023/09/20 05:35:17;;;;;;;10.57;6.15;;;;;;;17.40;58.65;99489.53;5066104;28;20808;-38
2023/09/20 05:37:44;;;;;;;9.48;5.85;;;;;;;17.44;58.06;99469.97;5071146;28;20044;-38
2023/09/20 05:40:17;;;;;;;14.85;6.38;;;;;;;17.68;57.87;99489.44;5070196;28;20058;-37
2023/09/20 05:42:50;;;;;;;10.77;5.53;;;;;;;17.88;57.46;99491.56;5072078;28;20066;-38
2023/09/20 05:45:20;;;;;;;14.13;6.18;;;;;;;18.24;56.78;99487.38;5069698;28;20028;-38
2023/09/20 05:47:46;;;;;;;10.88;6.20;;;;;;;18.73;55.41;99493.59;5066607;28;20531;-38
2023/09/20 05:50:13;;;;;;;11.77;6.00;;;;;;;19.29;54.18;99500.03;5069375;28;20048;-39
2023/09/20 05:52:42;;;;;;;9.43;5.85;;;;;;;19.93;52.80;99497.09;5069418;28;20046;-37
2023/09/20 05:55:14;;;;;;;8.43;5.25;;;;;;;20.40;51.33;99493.47;5066614;28;20369;-38
2023/09/20 05:57:43;;;;;;;10.48;6.50;;;;;;;20.76;50.38;99495.88;5071611;28;20470;-38
2023/09/20 06:00:21;;;;;;;14.43;6.25;;;;;;;21.24;49.24;99496.41;5071091;28;20106;-38
2023/09/20 06:02:49;;;;;;;9.10;6.60;;;;;;;21.74;48.16;99494.88;5062617;28;20049;-37
2023/09/20 06:05:16;;;;;;;12.23;6.07;;;;;;;22.04;46.82;99501.25;5064782;28;20040;-37
2023/09/20 06:07:44;;;;;;;15.52;6.20;;;;;;;22.47;45.92;99474.59;5067394;28;20100;-38
2023/09/20 06:10:12;;;;;;;10.10;6.20;;;;;;;23.12;45.16;99498.00;5064320;28;20040;-38
2023/09/20 06:12:38;;;;;;;9.70;6.05;;;;;;;24.02;43.82;99496.75;5072492;28;20294;-37
2023/09/20 06:15:07;;;;;;;9.75;5.93;;;;;;;24.86;42.14;99494.16;5071415;28;20039;-37
2023/09/20 06:17:33;;;;;;;11.30;6.20;;;;;;;25.18;41.04;99491.88;5072620;28;20056;-38
2023/09/20 06:20:00;;;;;;;10.02;5.60;;;;;;;25.80;40.08;99478.69;5073473;28;20169;-38
2023/09/20 06:22:29;;;;;;;8.75;6.28;;;;;;;26.44;38.89;99487.13;5076300;28;20503;-38
2023/09/20 06:24:59;;;;;;;7.85;6.22;;;;;;;26.57;38.01;99489.38;5061816;28;20573;-37
2023/09/20 06:27:25;;;;;;;7.25;5.90;;;;;;;26.34;37.42;99478.41;5060982;28;20052;-38
2023/09/20 06:29:51;;;;;;;10.15;6.30;;;;;;;26.51;37.69;99485.50;5067486;28;20598;-37
2023/09/20 06:32:18;;;;;;;14.80;6.47;;;;;;;26.78;36.86;99486.31;5078986;28;20044;-38
2023/09/20 06:34:44;;;;;;;10.27;6.05;;;;;;;26.75;36.26;99468.78;5047788;28;20047;-38
2023/09/20 06:37:09;;;;;;;8.38;5.88;;;;;;;26.90;36.44;99488.53;5067633;28;20052;-38
2023/09/20 06:39:36;;;;;;;10.02;6.13;;;;;;;27.09;36.05;99476.75;5068565;28;20045;-38
2023/09/20 06:42:03;;;;;;;11.07;6.65;;;;;;;27.57;35.82;99470.69;5065629;28;20512;-39
2023/09/20 06:44:35;;;;;;;9.93;6.13;;;;;;;28.79;34.26;99500.78;5063533;28;20044;-39
2023/09/20 06:47:06;;;;;;;14.90;6.55;;;;;;;28.61;33.90;99489.47;5051037;28;20093;-38
2023/09/20 06:49:32;;;;;;;17.10;6.78;;;;;;;29.06;32.97;99497.66;5068983;28;20078;-41
2023/09/20 06:52:03;;;;;;;11.02;6.10;;;;;;;29.24;32.70;99502.75;5068523;28;20489;-41
2023/09/20 06:54:29;;;;;;;9.23;6.20;;;;;;;30.02;32.37;99507.09;5063075;28;20505;-39
2023/09/20 06:57:03;;;;;;;9.25;5.55;;;;;;;30.12;31.58;99508.50;5064452;28;20465;-40
2023/09/20 06:59:33;;;;;;;14.68;6.85;;;;;;;30.36;31.32;99501.22;5066536;28;20040;-40
2023/09/20 07:02:00;;;;;;;14.55;6.72;;;;;;;31.28;30.07;99510.53;5065293;28;20037;-38
2023/09/20 07:04:26;;;;;;;10.75;8.23;;;;;;;31.26;30.10;99501.81;5066776;28;20044;-39
2023/09/20 07:06:55;;;;;;;10.80;6.38;;;;;;;31.78;29.10;99509.63;5071354;28;20048;-40
2023/09/20 07:09:22;;;;;;;15.55;7.00;;;;;;;31.83;28.91;99507.19;5068129;28;20042;-39
2023/09/20 07:11:50;;;;;;;10.27;6.53;;;;;;;31.54;29.21;99510.81;5063203;28;20050;-39
2023/09/20 07:14:25;;;;;;;10.45;5.97;;;;;;;31.21;29.28;99512.31;5063970;28;20040;-45
2023/09/20 07:16:52;;;;;;;14.40;6.88;;;;;;;31.28;29.31;99511.38;5058126;28;20040;-39
2023/09/20 07:19:23;;;;;;;7.43;5.90;;;;;;;31.75;28.95;99505.47;5075323;28;20040;-39
2023/09/20 07:21:50;;;;;;;11.68;6.50;;;;;;;31.33;28.79;99475.88;5059674;28;20032;-39
2023/09/20 07:24:16;;;;;;;12.68;6.28;;;;;;;31.43;28.82;99508.63;5077982;28;20044;-39
2023/09/20 07:26:45;;;;;;;10.23;6.30;;;;;;;31.74;28.44;99503.81;5070496;28;20083;-40
2023/09/20 07:29:18;;;;;;;13.07;6.45;;;;;;;31.82;28.26;99519.78;5052571;28;20687;-39
2023/09/20 07:31:46;;;;;;;10.23;6.15;;;;;;;31.82;28.41;99509.03;5071375;28;20266;-39
2023/09/20 07:34:16;;;;;;;12.98;6.28;;;;;;;32.47;27.66;99507.09;5072223;28;20040;-39
2023/09/20 07:36:43;;;;;;;9.18;5.93;;;;;;;32.98;27.23;99518.38;5058720;28;20189;-38
2023/09/20 07:39:13;;;;;;;7.55;5.82;;;;;;;33.04;27.13;99517.56;5072501;28;20040;-39
2023/09/20 07:41:50;;;;;;;10.68;5.97;;;;;;;32.56;27.10;99511.28;5060647;28;20563;-39
2023/09/20 07:44:17;;;;;;;16.77;7.00;;;;;;;32.28;27.34;99493.31;5072631;28;20040;-39
2023/09/20 07:46:43;;;;;;;14.90;6.65;;;;;;;32.92;27.10;99513.81;5069854;28;20043;-41
2023/09/20 07:49:10;;;;;;;12.85;6.53;;;;;;;33.00;26.52;99511.75;5081755;28;20434;-39
2023/09/20 07:51:39;;;;;;;11.95;6.55;;;;;;;32.20;27.32;99506.91;5079146;28;20094;-39
2023/09/20 07:54:09;;;;;;;9.02;5.90;;;;;;;31.88;27.59;99502.06;5079955;28;20043;-39
2023/09/20 07:56:35;;;;;;;9.20;5.80;;;;;;;31.19;28.34;99509.00;5080354;28;20127;-39
2023/09/20 07:59:03;;;;;;;13.75;6.28;;;;;;;30.45;29.02;99502.81;5048243;28;20127;-38
2023/09/20 08:01:30;;;;;;;12.88;6.10;;;;;;;30.67;29.17;99480.44;5071372;28;20037;-39
2023/09/20 08:04:00;;;;;;;11.38;6.10;;;;;;;31.37;28.34;99510.22;5090168;28;20134;-40
2023/09/20 08:06:33;;;;;;;11.85;5.72;;;;;;;30.86;28.95;99514.75;5080522;28;20056;-39
2023/09/20 08:09:00;;;;;;;11.60;5.82;;;;;;;30.01;29.44;99503.56;5083953;28;20392;-38
2023/09/20 08:11:26;;;;;;;16.83;6.63;;;;;;;29.91;30.04;99494.94;5068616;28;20093;-38
2023/09/20 08:13:54;;;;;;;19.63;6.22;;;;;;;30.59;29.76;99500.16;5071029;28;20045;-38
2023/09/20 08:16:21;;;;;;;9.90;6.10;;;;;;;31.50;28.84;99509.56;5067140;28;20094;-38
2023/09/20 08:21:33;;;;;;;13.57;5.90;;;;;;;30.11;29.86;99492.56;5062013;28;20032;-39
2023/09/20 09:00:18;;;;;;;14.38;6.35;;;;;;;34.84;23.95;99484.91;5067406;28;20526;-40
2023/09/20 09:02:44;;;;;;;9.25;5.78;;;;;;;34.91;24.17;99487.59;5070833;28;20415;-39
2023/09/20 09:05:12;;;;;;;13.10;5.88;;;;;;;35.13;23.86;99478.13;5066467;28;20049;-39
2023/09/20 09:07:37;;;;;;;16.52;6.47;;;;;;;34.71;23.99;99474.16;5079652;28;20474;-39
2023/09/20 09:10:05;;;;;;;8.80;5.75;;;;;;;33.94;24.54;99468.66;5060918;28;20048;-40
2023/09/20 09:12:31;;;;;;;12.25;5.88;;;;;;;33.73;24.85;99475.06;5084116;28;20063;-38
2023/09/20 09:14:57;;;;;;;12.15;5.80;;;;;;;33.12;25.07;99469.75;5058435;28;20068;-40
2023/09/20 09:17:23;;;;;;;9.88;5.80;;;;;;;32.14;26.02;99469.19;5063521;28;20087;-39
2023/09/20 09:19:48;;;;;;;9.68;5.40;;;;;;;31.49;27.03;99463.03;5059933;28;20516;-40
2023/09/20 09:22:15;;;;;;;8.10;5.88;;;;;;;31.22;27.48;99454.88;5081231;28;20444;-39
2023/09/20 09:24:47;;;;;;;10.90;5.82;;;;;;;31.49;27.13;99465.72;5069463;28;20438;-39
2023/09/20 09:27:15;;;;;;;8.05;5.82;;;;;;;31.48;27.31;99472.09;5070186;28;20032;-39
2023/09/20 09:29:43;;;;;;;6.63;5.70;;;;;;;31.75;26.49;99473.22;5078891;28;20044;-40
2023/09/20 09:32:09;;;;;;;12.13;4.90;;;;;;;31.82;26.11;99457.16;5081243;28;20075;-40
2023/09/20 09:34:37;;;;;;;7.85;5.40;;;;;;;32.04;26.14;99466.81;5066424;28;20090;-40
2023/09/20 09:37:04;;;;;;;11.73;5.70;;;;;;;32.41;25.81;99452.19;5070580;28;20032;-38
2023/09/20 09:39:32;;;;;;;11.30;4.90;;;;;;;33.08;25.36;99455.00;5070585;28;20415;-38
2023/09/20 09:41:59;;;;;;;;;;;;;;;33.76;24.41;99453.06;5063252;28;20499;-37
2023/09/20 09:44:26;;;;;;;7.30;4.90;;;;;;;34.00;24.11;99447.06;5078740;28;19973;-40
2023/09/20 09:46:53;;;;;;;11.85;5.57;;;;;;;33.96;23.72;99456.63;5071477;28;20053;-39
2023/09/20 09:49:19;;;;;;;;;;;;;;;33.80;24.08;99451.66;5068688;28;20116;-38
2023/09/20 09:51:46;;;;;;;8.13;5.75;;;;;;;34.68;23.37;99460.22;5072757;28;19981;-39
2023/09/20 09:54:15;;;;;;;12.35;5.50;;;;;;;34.48;23.16;99446.78;5076185;28;20408;-38
2023/09/20 09:56:42;;;;;;;13.20;5.80;;;;;;;34.63;23.45;99446.53;5069309;28;20047;-38
2023/09/20 09:59:08;;;;;;;10.43;6.07;;;;;;;35.55;22.41;99451.47;5062066;28;20041;-37
2023/09/20 10:01:38;;;;;;;12.73;5.85;;;;;;;36.06;21.97;99449.38;5078701;28;20035;-40
2023/09/20 10:04:08;;;;;;;12.77;5.72;;;;;;;35.77;22.11;99433.00;5080844;28;20112;-38
2023/09/20 10:06:51;;;;;;;7.10;5.30;;;;;;;35.68;21.65;99446.84;5074739;28;20520;-39
2023/09/20 10:09:23;;;;;;;7.65;5.45;;;;;;;35.87;21.79;99453.13;5059462;28;20103;-38
2023/09/20 10:11:50;;;;;;;9.20;5.75;;;;;;;35.51;22.34;99447.56;5066713;28;20444;-39
2023/09/20 10:14:18;;;;;;;11.43;5.88;;;;;;;35.75;21.96;99443.25;5085264;28;20097;-39
2023/09/20 10:16:44;;;;;;;11.95;5.72;;;;;;;36.25;21.17;99444.03;5069804;28;20052;-39
2023/09/20 10:19:15;;;;;;;11.65;5.50;;;;;;;35.68;21.48;99446.00;5069432;28;20040;-40
2023/09/20 10:22:14;;;;;;;7.50;5.43;;;;;;;36.02;21.35;99448.19;5073393;28;20471;-39
2023/09/20 10:25:01;;;;;;;12.02;5.65;;;;;;;36.56;20.62;99452.03;5044054;28;20105;-40
2023/09/20 10:27:30;;;;;;;11.65;6.07;;;;;;;36.88;20.78;99448.13;5068284;28;20044;-41
2023/09/20 10:30:00;;;;;;;10.13;5.80;;;;;;;37.21;19.98;99436.03;5065520;28;20832;-39
2023/09/20 10:32:36;;;;;;;6.55;5.25;;;;;;;36.71;20.36;99441.66;5059995;28;20033;-40
2023/09/20 10:35:31;;;;;;;13.13;5.93;;;;;;;35.93;20.76;99454.09;5049007;28;20422;-40
2023/09/20 10:37:58;;;;;;;11.05;5.55;;;;;;;35.84;21.28;99445.44;5065969;28;20186;-39
2023/09/20 10:40:44;;;;;;;5.45;4.80;;;;;;;35.63;21.64;99441.22;5077462;28;20568;-39
2023/09/20 10:43:10;;;;;;;14.77;6.05;;;;;;;36.38;20.85;99420.34;5064803;28;20043;-41
2023/09/20 10:45:36;;;;;;;13.55;6.40;;;;;;;36.91;20.63;99430.56;5070274;28;20048;-39
2023/09/20 10:48:06;;;;;;;8.57;5.80;;;;;;;36.56;20.52;99426.81;5054871;28;20033;-39
2023/09/20 10:50:54;;;;;;;10.35;5.88;;;;;;;36.34;21.30;99443.53;5089892;28;20501;-39
2023/09/20 10:53:22;;;;;;;9.20;6.00;;;;;;;36.45;20.81;99452.78;5056802;28;20175;-40
2023/09/20 10:55:51;;;;;;;9.60;6.22;;;;;;;36.18;20.71;99441.41;5079015;28;20150;-39
2023/09/20 10:58:23;;;;;;;13.02;5.10;;;;;;;36.41;20.63;99446.16;5076958;28;20047;-39
2023/09/20 11:00:50;;;;;;;14.00;5.78;;;;;;;35.82;20.57;99468.34;5076193;28;20119;-39
2023/09/20 11:03:18;;;;;;;20.38;5.95;;;;;;;35.18;21.55;99442.34;5071788;28;20543;-40
2023/09/20 11:05:44;;;;;;;;;;;;;;;36.08;20.60;99438.34;5076392;28;20055;-40
2023/09/20 11:08:13;;;;;;;7.55;4.93;;;;;;;35.80;20.70;99429.88;5074958;28;19939;-40
2023/09/20 11:10:40;;;;;;;9.80;4.90;;;;;;;34.88;21.48;99441.25;5076764;28;20040;-39
2023/09/20 11:13:11;;;;;;;9.77;5.38;;;;;;;34.61;21.85;99446.72;5076297;28;20466;-39
2023/09/20 11:15:43;;;;;;;15.63;6.53;;;;;;;34.18;22.31;99407.81;5071330;28;20059;-38
2023/09/20 11:18:10;;;;;;;12.70;6.20;;;;;;;33.82;22.50;99424.44;5074875;28;20046;-39
2023/09/20 11:20:36;;;;;;;11.60;5.57;;;;;;;34.25;22.14;99395.13;5059314;28;20311;-39
2023/09/20 11:23:03;;;;;;;9.95;5.43;;;;;;;34.03;22.10;99441.22;5079194;28;20558;-39
2023/09/20 11:25:29;;;;;;;10.88;6.50;;;;;;;33.75;22.94;99450.59;5089016;28;20032;-39
2023/09/20 11:27:56;;;;;;;13.05;5.60;;;;;;;33.32;23.00;99425.84;5061364;28;20063;-39
2023/09/20 11:30:28;;;;;;;;;;;;;;;33.24;23.14;99416.09;5073965;28;20040;-39
2023/09/20 11:32:55;;;;;;;6.53;5.10;;;;;;;32.71;23.46;99432.06;5067246;28;19935;-39
2023/09/20 11:35:32;;;;;;;8.93;4.90;;;;;;;32.20;24.11;99422.66;5079676;28;20135;-39
2023/09/20 11:37:58;;;;;;;11.68;5.53;;;;;;;31.49;24.77;99432.63;5074183;28;20057;-40
2023/09/20 11:40:24;;;;;;;12.48;4.55;;;;;;;30.87;25.59;99429.69;5057639;28;20135;-39
2023/09/20 11:42:52;;;;;;;14.75;4.88;;;;;;;30.31;26.00;99422.13;5066324;28;20504;-40
2023/09/20 11:45:23;;;;;;;8.73;4.65;;;;;;;29.83;26.81;99411.91;5056755;28;20041;-40
2023/09/20 11:47:50;;;;;;;9.10;4.78;;;;;;;29.31;27.49;99390.38;5071981;28;20039;-40
2023/09/20 11:50:16;;;;;;;7.18;4.60;;;;;;;28.96;28.06;99431.94;5065910;28;20143;-40
2023/09/20 11:52:47;;;;;;;13.98;4.88;;;;;;;28.43;28.43;99390.69;5071533;28;20075;-46
2023/09/20 11:55:14;;;;;;;10.40;3.88;;;;;;;28.16;28.78;99399.16;5062893;28;20040;-38
2023/09/20 11:57:45;;;;;;;13.57;4.63;;;;;;;27.78;29.43;99414.94;5058297;28;20059;-39
2023/09/20 12:00:18;;;;;;;10.48;4.78;;;;;;;27.63;29.84;99394.41;5058176;28;20041;-41
2023/09/20 12:02:45;;;;;;;12.25;5.20;;;;;;;27.40;30.37;99396.88;5047486;28;20063;-39
2023/09/20 12:05:11;;;;;;;14.57;5.00;;;;;;;27.17;30.39;99372.66;5064943;28;20075;-40
2023/09/20 12:07:37;;;;;;;14.43;5.53;;;;;;;27.31;30.65;99395.22;5049444;28;20052;-40
2023/09/20 12:10:06;;;;;;;9.65;5.28;;;;;;;27.85;30.13;99380.31;5067495;28;20047;-41
2023/09/20 12:12:33;;;;;;;12.23;5.63;;;;;;;27.88;30.12;99395.19;5068196;28;20040;-39
2023/09/20 12:15:00;;;;;;;10.73;5.20;;;;;;;27.47;30.46;99395.22;5068611;28;20075;-40